createdAt,value
2022-11-07T00:00:24.775Z,18.50
2022-11-07T00:03:27.197Z,19.33
2022-11-07T00:06:29.456Z,21.50
2022-11-07T00:09:31.811Z,21.85
2022-11-07T00:12:36.592Z,20.15
2022-11-07T00:15:38.958Z,20.42
2022-11-07T00:18:41.273Z,22.25
2022-11-07T00:21:43.960Z,21.73
2022-11-07T00:24:46.177Z,21.33
2022-11-07T00:27:48.455Z,22.27
2022-11-07T00:30:50.657Z,22.50
2022-11-07T00:33:53.083Z,22.83
2022-11-07T00:36:55.370Z,22.30
2022-11-07T00:39:57.645Z,21.38
2022-11-07T00:42:59.900Z,20.65
2022-11-07T00:46:03.503Z,19.30
2022-11-07T00:49:05.796Z,18.27
2022-11-07T00:52:08.106Z,21.75
2022-11-07T00:55:10.425Z,20.08
2022-11-07T00:58:14.458Z,22.67
2022-11-07T01:01:22.768Z,21.17
2022-11-07T01:04:43.882Z,21.77
2022-11-07T01:07:46.185Z,20.85
2022-11-07T01:10:48.435Z,19.08
2022-11-07T01:13:51.068Z,21.17
2022-11-07T01:16:53.387Z,19.92
2022-11-07T01:19:55.739Z,20.35
2022-11-07T01:22:58.011Z,19.27
2022-11-07T01:26:09.060Z,20.35
2022-11-07T01:29:11.434Z,21.80
2022-11-07T01:32:13.862Z,22.27
2022-11-07T01:35:16.347Z,22.75
2022-11-07T01:38:18.723Z,22.38
2022-11-07T01:41:25.611Z,22.25
2022-11-07T01:44:28.031Z,23.38
2022-11-07T01:47:36.979Z,22.60
2022-11-07T01:50:39.340Z,21.73
2022-11-07T01:53:42.497Z,22.10
2022-11-07T01:56:45.489Z,20.93
2022-11-07T01:59:48.082Z,23.50
2022-11-07T02:02:54.355Z,23.00
2022-11-07T02:06:00.729Z,23.15
2022-11-07T02:09:03.074Z,24.20
2022-11-07T02:12:05.529Z,26.25
2022-11-07T02:15:09.204Z,25.98
2022-11-07T02:18:11.742Z,25.73
2022-11-07T02:21:29.015Z,26.70
2022-11-07T02:24:34.194Z,26.80
2022-11-07T02:27:37.512Z,25.42
2022-11-07T02:30:39.867Z,20.20
2022-11-07T02:33:42.200Z,24.48
2022-11-07T02:36:44.476Z,27.17
2022-11-07T02:39:46.780Z,23.45
2022-11-07T02:42:49.110Z,24.10
2022-11-07T02:45:52.083Z,22.98
2022-11-07T02:48:59.040Z,26.58
2022-11-07T02:52:01.787Z,22.98
2022-11-07T02:55:05.611Z,23.52
2022-11-07T02:58:07.969Z,22.10
2022-11-07T03:01:10.432Z,23.58
2022-11-07T03:04:12.757Z,24.00
2022-11-07T03:07:15.096Z,24.42
2022-11-07T03:10:18.755Z,23.77
2022-11-07T03:13:21.003Z,22.98
2022-11-07T03:16:23.419Z,22.52
2022-11-07T03:19:25.874Z,21.95
2022-11-07T03:22:28.436Z,25.63
2022-11-07T03:25:30.731Z,22.88
2022-11-07T03:28:33.641Z,26.00
2022-11-07T03:31:36.193Z,26.08
2022-11-07T03:34:38.538Z,35.53
2022-11-07T03:37:40.769Z,26.27
2022-11-07T03:40:43.099Z,27.25
2022-11-07T03:43:46.056Z,29.52
2022-11-07T03:46:48.325Z,25.58
2022-11-07T03:49:50.657Z,26.40
2022-11-07T03:52:53.034Z,28.48
2022-11-07T03:55:56.557Z,30.70
2022-11-07T03:58:59.022Z,28.48
2022-11-07T04:02:01.421Z,31.45
2022-11-07T04:05:04.751Z,30.73
2022-11-07T04:08:07.064Z,29.48
2022-11-07T04:11:29.318Z,27.90
2022-11-07T04:14:50.503Z,32.38
2022-11-07T04:17:52.813Z,28.77
2022-11-07T04:20:55.180Z,29.17
2022-11-07T04:23:57.469Z,28.58
2022-11-07T04:27:18.363Z,25.10
2022-11-07T04:30:22.593Z,27.30
2022-11-07T04:33:24.921Z,29.38
2022-11-07T04:36:27.246Z,29.27
2022-11-07T04:39:29.510Z,26.30
2022-11-07T04:42:31.825Z,30.73
2022-11-07T04:45:34.121Z,30.52
2022-11-07T04:48:36.408Z,26.10
2022-11-07T04:51:43.213Z,28.75
2022-11-07T04:54:45.557Z,28.25
2022-11-07T04:57:48.098Z,31.05
2022-11-07T05:00:50.405Z,25.42
2022-11-07T05:03:52.705Z,27.38
2022-11-07T05:06:55.015Z,42.50
2022-11-07T05:09:57.320Z,51.03
2022-11-07T05:12:59.554Z,43.90
2022-11-07T05:16:01.838Z,46.85
2022-11-07T05:19:04.453Z,40.85
2022-11-07T05:22:25.192Z,38.78
2022-11-07T05:25:27.458Z,32.47
2022-11-07T05:28:38.227Z,39.45
2022-11-07T05:31:41.191Z,31.20
2022-11-07T05:34:43.515Z,32.97
2022-11-07T05:37:45.867Z,28.60
2022-11-07T05:40:48.100Z,33.45
2022-11-07T05:43:50.476Z,40.28
2022-11-07T05:46:52.720Z,37.33
2022-11-07T05:49:55.076Z,41.15
2022-11-07T05:52:57.564Z,34.45
2022-11-07T05:55:59.867Z,31.40
2022-11-07T05:59:02.120Z,36.15
2022-11-07T06:02:04.508Z,33.28
2022-11-07T06:05:07.534Z,31.98
2022-11-07T06:08:11.839Z,33.67
2022-11-07T06:11:14.159Z,31.80
2022-11-07T06:14:16.480Z,33.63
2022-11-07T06:17:18.925Z,34.97
2022-11-07T06:20:21.776Z,34.88
2022-11-07T06:23:24.091Z,31.30
2022-11-07T06:26:26.928Z,35.47
2022-11-07T06:29:29.304Z,34.10
2022-11-07T06:32:31.763Z,34.65
2022-11-07T06:35:34.339Z,75.82
2022-11-07T06:38:37.094Z,45.10
2022-11-07T06:41:39.469Z,52.55
2022-11-07T06:44:41.779Z,121.97
2022-11-07T06:47:44.129Z,47.45
2022-11-07T06:50:46.480Z,36.83
2022-11-07T06:53:50.412Z,36.28
2022-11-07T06:56:52.721Z,33.80
2022-11-07T06:59:55.037Z,44.63
2022-11-07T07:02:58.972Z,36.17
2022-11-07T07:06:06.169Z,36.90
2022-11-07T07:09:08.519Z,34.17
2022-11-07T07:12:11.625Z,34.20
2022-11-07T07:15:13.929Z,32.53
2022-11-07T07:18:16.226Z,37.42
2022-11-07T07:21:18.564Z,38.95
2022-11-07T07:24:20.876Z,34.70
2022-11-07T07:27:23.118Z,34.58
2022-11-07T07:30:25.440Z,32.97
2022-11-07T07:33:27.671Z,37.35
2022-11-07T07:36:30.104Z,34.90
2022-11-07T07:39:32.347Z,36.00
2022-11-07T07:42:34.963Z,35.15
2022-11-07T07:45:37.252Z,36.70
2022-11-07T07:48:39.569Z,33.25
2022-11-07T07:51:41.975Z,35.58
2022-11-07T07:54:44.311Z,35.67
2022-11-07T07:57:46.607Z,36.00
2022-11-07T08:00:52.687Z,40.15
2022-11-07T08:04:02.862Z,38.10
2022-11-07T08:07:05.521Z,34.92
2022-11-07T08:10:35.081Z,34.17
2022-11-07T08:13:30.762Z,34.05
2022-11-07T08:16:33.242Z,33.20
2022-11-07T08:19:35.572Z,35.60
2022-11-07T08:22:38.902Z,31.70
2022-11-07T08:25:41.217Z,33.47
2022-11-07T08:28:43.952Z,36.72
2022-11-07T08:31:46.338Z,41.47
2022-11-07T08:34:48.855Z,35.72
2022-11-07T08:37:53.904Z,30.45
2022-11-07T08:40:56.715Z,42.47
2022-11-07T08:43:59.409Z,37.92
2022-11-07T08:47:07.316Z,36.70
2022-11-07T08:50:10.992Z,36.95
2022-11-07T08:53:13.480Z,39.17
2022-11-07T08:56:16.129Z,35.10
2022-11-07T08:59:18.999Z,39.78
2022-11-07T09:03:08.462Z,32.17
2022-11-07T09:05:43.691Z,29.75
2022-11-07T09:08:46.437Z,33.25
2022-11-07T09:11:48.724Z,32.30
2022-11-07T09:14:50.994Z,36.53
2022-11-07T09:17:53.313Z,38.63
2022-11-07T09:20:55.654Z,28.10
2022-11-07T09:23:57.997Z,33.72
2022-11-07T09:27:00.265Z,29.75
2022-11-07T09:30:03.771Z,27.42
2022-11-07T09:33:06.109Z,22.70
2022-11-07T09:36:08.848Z,27.52
2022-11-07T09:39:11.155Z,27.45
2022-11-07T09:42:48.868Z,26.23
2022-11-07T09:45:59.213Z,30.02
2022-11-07T09:49:35.179Z,26.65
2022-11-07T09:52:41.203Z,25.40
2022-11-07T09:55:53.674Z,27.38
2022-11-07T09:58:57.568Z,24.88
2022-11-07T10:02:00.190Z,25.02
2022-11-07T10:05:05.290Z,25.02
2022-11-07T10:08:17.554Z,25.58
2022-11-07T10:11:28.655Z,25.58
2022-11-07T10:14:49.443Z,25.88
2022-11-07T10:18:33.345Z,26.67
2022-11-07T10:21:45.231Z,24.75
2022-11-07T10:24:57.571Z,24.80
2022-11-07T10:28:08.706Z,25.25
2022-11-07T10:31:13.264Z,22.50
2022-11-07T10:34:23.865Z,24.80
2022-11-07T10:37:26.386Z,21.15
2022-11-07T10:40:35.795Z,20.95
2022-11-07T10:43:40.606Z,25.02
2022-11-07T10:46:47.693Z,21.83
2022-11-07T10:49:58.514Z,23.25
2022-11-07T10:53:09.854Z,22.00
2022-11-07T10:56:14.163Z,23.50
2022-11-07T10:59:30.119Z,22.00
2022-11-07T11:02:48.443Z,23.02
2022-11-07T11:05:50.976Z,23.50
2022-11-07T11:08:53.802Z,22.75
2022-11-07T11:11:56.337Z,28.70
2022-11-07T11:15:12.711Z,24.33
2022-11-07T11:18:18.264Z,24.85
2022-11-07T11:21:21.195Z,23.20
2022-11-07T11:24:40.182Z,25.17
2022-11-07T11:27:42.653Z,25.33
2022-11-07T11:30:47.917Z,21.85
2022-11-07T11:34:01.191Z,22.60
2022-11-07T11:37:16.452Z,20.58
2022-11-07T11:40:22.259Z,23.50
2022-11-07T11:43:33.546Z,20.30
2022-11-07T11:46:46.551Z,19.08
2022-11-07T11:50:00.309Z,22.17
2022-11-07T11:53:02.683Z,20.75
2022-11-07T11:56:07.691Z,19.83
2022-11-07T11:59:15.658Z,21.05
2022-11-07T12:02:26.563Z,20.27
2022-11-07T12:05:36.055Z,21.55
2022-11-07T12:09:04.247Z,21.23
2022-11-07T12:12:06.987Z,23.85
2022-11-07T12:15:32.710Z,21.88
2022-11-07T12:19:02.693Z,27.15
2022-11-07T12:22:29.543Z,22.42
2022-11-07T12:25:55.186Z,22.77
2022-11-07T12:29:29.128Z,19.77
2022-11-07T12:32:52.371Z,22.25
2022-11-07T12:36:02.815Z,19.63
2022-11-07T12:39:13.892Z,20.77
2022-11-07T12:42:42.916Z,22.00
2022-11-07T12:45:48.088Z,22.40
2022-11-07T12:49:09.280Z,20.95
2022-11-07T12:52:11.813Z,20.85
2022-11-07T12:55:29.253Z,19.17
2022-11-07T12:58:33.538Z,19.55
2022-11-07T14:22:51.795Z,13.77
2022-11-07T14:25:59.450Z,12.75
2022-11-07T14:29:03.889Z,13.98
2022-11-07T14:32:08.023Z,12.40
2022-11-07T14:35:10.840Z,14.23
2022-11-07T14:38:20.618Z,16.50
2022-11-07T14:41:23.891Z,29.00
2022-11-07T14:44:56.390Z,50.72
2022-11-07T14:47:59.786Z,17.95
2022-11-07T14:51:03.891Z,21.80
2022-11-07T14:54:07.866Z,18.25
2022-11-07T14:57:12.982Z,14.77
2022-11-07T15:00:19.509Z,18.65
2022-11-07T15:03:25.613Z,15.07
2022-11-07T15:06:34.162Z,12.38
2022-11-07T15:09:37.319Z,13.30
2022-11-07T15:12:50.669Z,14.60
2022-11-07T15:16:17.378Z,13.60
2022-11-07T15:19:22.841Z,13.25
2022-11-07T15:22:30.082Z,12.93
2022-11-07T15:25:41.212Z,12.35
2022-11-07T15:28:46.072Z,17.77
2022-11-07T15:31:49.952Z,14.68
2022-11-07T15:35:12.550Z,13.13
2022-11-07T15:38:27.181Z,15.18
2022-11-07T15:41:29.682Z,15.68
2022-11-07T15:44:33.653Z,14.85
2022-11-07T15:47:37.545Z,14.30
2022-11-07T15:50:43.932Z,14.73
2022-11-07T15:53:46.563Z,14.30
2022-11-07T15:56:52.334Z,15.88
2022-11-07T15:59:59.727Z,14.90
2022-11-07T16:03:02.463Z,13.35
2022-11-07T16:06:35.597Z,14.50
2022-11-07T16:09:38.115Z,15.63
2022-11-07T16:12:40.698Z,16.35
2022-11-07T16:15:47.027Z,25.33
2022-11-07T16:18:51.847Z,19.92
2022-11-07T16:21:55.012Z,22.02
2022-11-07T16:24:58.456Z,30.33
2022-11-07T16:28:07.783Z,19.38
2022-11-07T16:31:10.265Z,18.98
2022-11-07T16:34:14.523Z,19.48
2022-11-07T16:37:17.230Z,17.80
2022-11-07T16:40:20.544Z,18.38
2022-11-07T16:43:23.209Z,17.45
2022-11-07T16:46:28.146Z,16.77
2022-11-07T16:49:34.786Z,17.83
2022-11-07T16:52:37.581Z,17.98
2022-11-07T16:55:41.380Z,18.23
2022-11-07T16:58:44.044Z,19.10
2022-11-07T17:01:46.550Z,18.33
2022-11-07T17:04:57.030Z,20.75
2022-11-07T17:08:03.660Z,19.02
2022-11-07T17:11:06.303Z,18.58
2022-11-07T17:14:08.943Z,19.70
2022-11-07T17:17:14.165Z,17.45
2022-11-07T17:20:49.435Z,19.63
2022-11-07T17:23:46.181Z,17.98
2022-11-07T17:26:48.938Z,16.92
2022-11-07T17:29:52.504Z,17.05
2022-11-07T17:32:56.491Z,18.33
2022-11-07T17:35:59.622Z,19.52
2022-11-07T17:39:07.291Z,18.40
2022-11-07T17:42:14.020Z,17.73
2022-11-07T17:45:16.865Z,17.67
2022-11-07T17:48:19.560Z,18.90
2022-11-07T17:51:27.361Z,19.20
2022-11-07T17:54:30.183Z,20.48
2022-11-07T17:57:33.461Z,19.25
2022-11-07T18:00:36.364Z,15.83
2022-11-07T18:03:38.910Z,20.10
2022-11-07T18:06:43.586Z,18.50
2022-11-07T18:09:49.717Z,20.17
2022-11-07T18:12:52.547Z,21.55
2022-11-07T18:15:55.787Z,21.15
2022-11-07T18:18:59.267Z,18.55
2022-11-07T18:22:06.327Z,15.98
2022-11-07T18:25:09.256Z,20.75
2022-11-07T18:28:12.769Z,19.90
2022-11-07T18:31:18.161Z,20.00
2022-11-07T18:34:20.654Z,17.58
2022-11-07T18:37:23.354Z,18.73
2022-11-07T18:40:25.905Z,20.45
2022-11-07T18:43:28.986Z,20.92
2022-11-07T18:46:31.443Z,20.45
2022-11-07T18:49:33.949Z,18.55
2022-11-07T18:52:36.744Z,17.77
2022-11-07T18:55:39.848Z,17.33
2022-11-07T18:58:43.141Z,19.38
2022-11-07T19:01:46.008Z,19.40
2022-11-07T19:04:48.725Z,18.55
2022-11-07T19:07:51.751Z,20.17
2022-11-07T19:10:54.453Z,18.33
2022-11-07T19:14:00.369Z,20.17
2022-11-07T19:17:02.939Z,19.27
2022-11-07T19:20:06.713Z,19.23
2022-11-07T19:23:09.233Z,17.60
2022-11-07T19:26:16.015Z,17.77
2022-11-07T19:29:18.836Z,17.85
2022-11-07T19:32:21.309Z,19.80
2022-11-07T19:35:24.044Z,18.42
2022-11-07T19:38:27.224Z,17.77
2022-11-07T19:41:30.029Z,17.52
2022-11-07T19:44:34.599Z,17.55
2022-11-07T19:47:37.329Z,16.63
2022-11-07T19:50:42.687Z,18.10
2022-11-07T19:56:35.867Z,17.35
2022-11-07T19:59:38.610Z,16.77
2022-11-07T20:02:44.728Z,17.02
2022-11-07T20:05:49.239Z,16.13
2022-11-07T20:08:52.145Z,17.45
2022-11-07T20:11:54.643Z,16.15
2022-11-07T20:14:57.876Z,17.33
2022-11-07T20:18:01.038Z,17.63
2022-11-07T20:21:06.489Z,21.65
2022-11-07T20:24:09.559Z,19.90
2022-11-07T20:27:16.147Z,21.58
2022-11-07T20:30:19.604Z,17.27
2022-11-07T20:33:25.137Z,17.50
2022-11-07T20:36:28.581Z,18.95
2022-11-07T20:39:31.268Z,17.30
2022-11-07T20:42:34.494Z,18.40
2022-11-07T20:45:39.400Z,13.30
2022-11-07T20:48:43.582Z,18.63
2022-11-07T20:51:47.362Z,19.15
2022-11-07T20:54:52.527Z,16.83
2022-11-07T20:57:55.838Z,16.00
2022-11-07T21:01:00.398Z,13.27
2022-11-07T21:04:08.434Z,17.10
2022-11-07T21:07:11.484Z,17.42
2022-11-07T21:10:15.033Z,19.45
2022-11-07T21:13:18.067Z,17.55
2022-11-07T21:16:24.463Z,17.95
2022-11-07T21:19:29.536Z,18.15
2022-11-07T21:22:32.356Z,17.27
2022-11-07T21:25:39.227Z,19.90
2022-11-07T21:28:42.314Z,19.92
2022-11-07T21:31:45.288Z,23.27
2022-11-07T21:34:47.849Z,23.05
2022-11-07T21:37:50.585Z,22.63
2022-11-07T21:40:54.094Z,22.23
2022-11-07T21:43:57.257Z,23.27
2022-11-07T21:47:02.415Z,24.08
2022-11-07T21:50:23.760Z,20.60
2022-11-07T21:53:37.574Z,21.13
2022-11-07T21:56:40.766Z,23.25
2022-11-07T21:59:43.287Z,24.30
2022-11-07T22:02:46.996Z,22.77
2022-11-07T22:05:49.775Z,23.10
2022-11-07T22:08:52.704Z,22.77
2022-11-07T22:11:55.505Z,21.45
2022-11-07T22:14:58.151Z,25.20
2022-11-07T22:18:00.988Z,23.55
2022-11-07T22:21:09.314Z,24.08
2022-11-07T22:24:14.697Z,23.98
2022-11-07T22:27:17.148Z,20.58
2022-11-07T22:30:20.081Z,22.30
2022-11-07T22:33:22.694Z,21.55
2022-11-07T22:36:25.521Z,24.33
2022-11-07T22:39:28.525Z,23.13
2022-11-07T22:42:30.921Z,23.55
2022-11-07T22:45:33.441Z,24.42
2022-11-07T22:48:36.383Z,21.90
2022-11-07T22:51:39.277Z,22.52
2022-11-07T22:54:42.218Z,22.52
2022-11-07T22:57:46.144Z,22.92
2022-11-07T23:00:48.875Z,23.95
2022-11-07T23:03:52.054Z,21.77
2022-11-07T23:06:55.969Z,18.95
2022-11-07T23:13:05.600Z,19.85
2022-11-07T23:16:18.617Z,19.38
2022-11-07T23:19:24.866Z,19.73
2022-11-07T23:22:32.052Z,18.23
2022-11-07T23:25:38.284Z,18.20
2022-11-07T23:28:44.359Z,17.63
2022-11-07T23:31:49.552Z,21.00
2022-11-07T23:34:54.450Z,17.35
2022-11-07T23:37:57.901Z,19.30
2022-11-07T23:41:05.868Z,14.83
2022-11-07T23:44:09.993Z,18.00
2022-11-07T23:47:31.028Z,19.00
2022-11-07T23:50:57.475Z,16.25
2022-11-07T23:54:19.221Z,18.08
2022-11-07T23:57:21.997Z,16.27
